sensor_id;sensor_type;location;lat;lon;timestamp;P1;durP1;ratioP1;P2;durP2;ratioP2
15633;SDS011;14654;48.898;8.308;2024-03-08T00:02:11;27.80;;;23.20;;
15633;SDS011;14654;48.898;8.308;2024-03-08T00:04:38;25.27;;;21.53;;
15633;SDS011;14654;48.898;8.308;2024-03-08T00:07:03;24.97;;;22.10;;
15633;SDS011;14654;48.898;8.308;2024-03-08T00:09:29;26.20;;;22.27;;
15633;SDS011;14654;48.898;8.308;2024-03-08T00:11:55;25.43;;;22.20;;
15633;SDS011;14654;48.898;8.308;2024-03-08T00:14:21;24.27;;;21.67;;
15633;SDS011;14654;48.898;8.308;2024-03-08T00:16:46;29.80;;;24.03;;
15633;SDS011;14654;48.898;8.308;2024-03-08T00:19:12;24.87;;;22.00;;
15633;SDS011;14654;48.898;8.308;2024-03-08T00:21:37;25.80;;;23.00;;
15633;SDS011;14654;48.898;8.308;2024-03-08T00:24:03;28.27;;;22.90;;
15633;SDS011;14654;48.898;8.308;2024-03-08T00:26:28;25.93;;;22.47;;
15633;SDS011;14654;48.898;8.308;2024-03-08T00:28:55;26.30;;;22.63;;
15633;SDS011;14654;48.898;8.308;2024-03-08T00:31:21;24.67;;;21.47;;
15633;SDS011;14654;48.898;8.308;2024-03-08T00:33:46;25.50;;;22.33;;
15633;SDS011;14654;48.898;8.308;2024-03-08T00:36:12;26.33;;;23.53;;
15633;SDS011;14654;48.898;8.308;2024-03-08T00:38:37;28.03;;;24.47;;
15633;SDS011;14654;48.898;8.308;2024-03-08T00:41:03;28.23;;;23.73;;
15633;SDS011;14654;48.898;8.308;2024-03-08T00:43:28;26.63;;;22.87;;
15633;SDS011;14654;48.898;8.308;2024-03-08T00:45:55;27.47;;;23.90;;
15633;SDS011;14654;48.898;8.308;2024-03-08T00:48:20;27.17;;;22.73;;
15633;SDS011;14654;48.898;8.308;2024-03-08T00:50:46;28.27;;;24.53;;
15633;SDS011;14654;48.898;8.308;2024-03-08T00:53:11;26.23;;;22.90;;
15633;SDS011;14654;48.898;8.308;2024-03-08T00:55:37;25.00;;;22.27;;
15633;SDS011;14654;48.898;8.308;2024-03-08T00:58:03;27.80;;;22.93;;
15633;SDS011;14654;48.898;8.308;2024-03-08T01:00:29;27.10;;;21.93;;
15633;SDS011;14654;48.898;8.308;2024-03-08T01:02:54;25.97;;;22.50;;
15633;SDS011;14654;48.898;8.308;2024-03-08T01:05:20;24.67;;;22.10;;
15633;SDS011;14654;48.898;8.308;2024-03-08T01:07:46;26.00;;;22.30;;
15633;SDS011;14654;48.898;8.308;2024-03-08T01:10:11;25.87;;;23.17;;
15633;SDS011;14654;48.898;8.308;2024-03-08T01:12:37;25.57;;;22.43;;
15633;SDS011;14654;48.898;8.308;2024-03-08T01:15:04;25.67;;;22.13;;
15633;SDS011;14654;48.898;8.308;2024-03-08T01:17:29;25.07;;;22.27;;
15633;SDS011;14654;48.898;8.308;2024-03-08T01:19:55;24.10;;;21.50;;
15633;SDS011;14654;48.898;8.308;2024-03-08T01:22:21;24.87;;;22.07;;
15633;SDS011;14654;48.898;8.308;2024-03-08T01:24:47;25.73;;;22.80;;
15633;SDS011;14654;48.898;8.308;2024-03-08T01:27:12;25.43;;;22.50;;
15633;SDS011;14654;48.898;8.308;2024-03-08T01:29:38;24.60;;;21.73;;
15633;SDS011;14654;48.898;8.308;2024-03-08T01:32:03;23.40;;;20.77;;
15633;SDS011;14654;48.898;8.308;2024-03-08T01:34:29;25.13;;;21.90;;
15633;SDS011;14654;48.898;8.308;2024-03-08T01:36:54;24.43;;;20.80;;
15633;SDS011;14654;48.898;8.308;2024-03-08T01:39:21;27.33;;;22.60;;
15633;SDS011;14654;48.898;8.308;2024-03-08T01:41:47;24.73;;;22.03;;
15633;SDS011;14654;48.898;8.308;2024-03-08T01:44:12;25.43;;;21.63;;
15633;SDS011;14654;48.898;8.308;2024-03-08T01:46:42;24.57;;;21.47;;
15633;SDS011;14654;48.898;8.308;2024-03-08T01:49:09;24.93;;;22.00;;
15633;SDS011;14654;48.898;8.308;2024-03-08T01:51:36;23.67;;;21.10;;
15633;SDS011;14654;48.898;8.308;2024-03-08T01:54:01;25.83;;;22.20;;
15633;SDS011;14654;48.898;8.308;2024-03-08T01:56:28;26.63;;;21.67;;
15633;SDS011;14654;48.898;8.308;2024-03-08T01:58:54;25.87;;;21.40;;
15633;SDS011;14654;48.898;8.308;2024-03-08T02:01:19;25.77;;;22.03;;
15633;SDS011;14654;48.898;8.308;2024-03-08T02:03:45;24.67;;;22.07;;
15633;SDS011;14654;48.898;8.308;2024-03-08T02:06:11;24.47;;;21.03;;
15633;SDS011;14654;48.898;8.308;2024-03-08T02:08:38;21.73;;;19.43;;
15633;SDS011;14654;48.898;8.308;2024-03-08T02:11:04;22.97;;;20.43;;
15633;SDS011;14654;48.898;8.308;2024-03-08T02:13:29;22.47;;;20.03;;
15633;SDS011;14654;48.898;8.308;2024-03-08T02:15:58;22.53;;;19.67;;
15633;SDS011;14654;48.898;8.308;2024-03-08T02:18:25;24.90;;;21.07;;
15633;SDS011;14654;48.898;8.308;2024-03-08T02:23:18;23.30;;;19.93;;
15633;SDS011;14654;48.898;8.308;2024-03-08T02:25:44;23.83;;;20.27;;
15633;SDS011;14654;48.898;8.308;2024-03-08T02:28:13;21.80;;;19.40;;
15633;SDS011;14654;48.898;8.308;2024-03-08T02:30:39;23.73;;;19.90;;
15633;SDS011;14654;48.898;8.308;2024-03-08T02:33:05;23.23;;;19.57;;
15633;SDS011;14654;48.898;8.308;2024-03-08T02:35:31;21.30;;;18.97;;
15633;SDS011;14654;48.898;8.308;2024-03-08T02:37:57;25.17;;;20.47;;
15633;SDS011;14654;48.898;8.308;2024-03-08T02:40:23;22.10;;;19.70;;
15633;SDS011;14654;48.898;8.308;2024-03-08T02:42:48;24.87;;;21.07;;
15633;SDS011;14654;48.898;8.308;2024-03-08T02:45:14;23.00;;;20.00;;
15633;SDS011;14654;48.898;8.308;2024-03-08T02:47:39;22.60;;;20.13;;
15633;SDS011;14654;48.898;8.308;2024-03-08T02:50:05;23.03;;;20.50;;
15633;SDS011;14654;48.898;8.308;2024-03-08T02:52:33;21.60;;;19.13;;
15633;SDS011;14654;48.898;8.308;2024-03-08T02:54:58;23.50;;;20.53;;
15633;SDS011;14654;48.898;8.308;2024-03-08T02:57:24;24.37;;;20.53;;
15633;SDS011;14654;48.898;8.308;2024-03-08T02:59:49;21.77;;;19.13;;
15633;SDS011;14654;48.898;8.308;2024-03-08T03:02:15;22.87;;;20.10;;
15633;SDS011;14654;48.898;8.308;2024-03-08T03:04:41;23.77;;;20.70;;
15633;SDS011;14654;48.898;8.308;2024-03-08T03:07:06;24.07;;;20.97;;
15633;SDS011;14654;48.898;8.308;2024-03-08T03:09:32;25.77;;;21.40;;
15633;SDS011;14654;48.898;8.308;2024-03-08T03:11:58;23.30;;;19.93;;
15633;SDS011;14654;48.898;8.308;2024-03-08T03:14:24;22.63;;;19.73;;
15633;SDS011;14654;48.898;8.308;2024-03-08T03:16:49;23.60;;;19.80;;
15633;SDS011;14654;48.898;8.308;2024-03-08T03:19:15;23.70;;;20.50;;
15633;SDS011;14654;48.898;8.308;2024-03-08T03:21:40;22.80;;;20.20;;
15633;SDS011;14654;48.898;8.308;2024-03-08T03:24:08;22.30;;;19.27;;
15633;SDS011;14654;48.898;8.308;2024-03-08T03:26:35;22.37;;;19.83;;
15633;SDS011;14654;48.898;8.308;2024-03-08T03:29:03;25.77;;;21.13;;
15633;SDS011;14654;48.898;8.308;2024-03-08T03:31:33;24.93;;;21.13;;
15633;SDS011;14654;48.898;8.308;2024-03-08T03:33:59;26.13;;;21.63;;
15633;SDS011;14654;48.898;8.308;2024-03-08T03:36:27;24.33;;;20.40;;
15633;SDS011;14654;48.898;8.308;2024-03-08T03:38:55;26.10;;;21.67;;
15633;SDS011;14654;48.898;8.308;2024-03-08T03:41:35;24.73;;;20.97;;
15633;SDS011;14654;48.898;8.308;2024-03-08T03:44:01;23.80;;;21.17;;
15633;SDS011;14654;48.898;8.308;2024-03-08T03:46:26;24.50;;;20.43;;
15633;SDS011;14654;48.898;8.308;2024-03-08T03:48:52;22.83;;;19.90;;
15633;SDS011;14654;48.898;8.308;2024-03-08T03:51:18;23.50;;;20.03;;
15633;SDS011;14654;48.898;8.308;2024-03-08T03:53:44;24.47;;;20.03;;
15633;SDS011;14654;48.898;8.308;2024-03-08T03:56:09;21.53;;;19.10;;
15633;SDS011;14654;48.898;8.308;2024-03-08T03:58:35;23.13;;;20.17;;
15633;SDS011;14654;48.898;8.308;2024-03-08T04:01:01;20.97;;;18.70;;
15633;SDS011;14654;48.898;8.308;2024-03-08T04:03:26;22.93;;;18.77;;
15633;SDS011;14654;48.898;8.308;2024-03-08T04:05:51;24.67;;;21.07;;
15633;SDS011;14654;48.898;8.308;2024-03-08T04:08:17;22.00;;;19.60;;
15633;SDS011;14654;48.898;8.308;2024-03-08T04:10:42;24.27;;;20.03;;
15633;SDS011;14654;48.898;8.308;2024-03-08T04:13:07;29.27;;;21.63;;
15633;SDS011;14654;48.898;8.308;2024-03-08T04:15:34;28.30;;;21.17;;
15633;SDS011;14654;48.898;8.308;2024-03-08T04:17:59;24.80;;;20.93;;
15633;SDS011;14654;48.898;8.308;2024-03-08T04:20:25;24.17;;;20.33;;
15633;SDS011;14654;48.898;8.308;2024-03-08T04:22:50;22.93;;;20.27;;
15633;SDS011;14654;48.898;8.308;2024-03-08T04:25:16;26.03;;;21.03;;
15633;SDS011;14654;48.898;8.308;2024-03-08T04:27:41;24.37;;;19.73;;
15633;SDS011;14654;48.898;8.308;2024-03-08T04:30:07;23.27;;;20.50;;
15633;SDS011;14654;48.898;8.308;2024-03-08T04:32:33;25.20;;;20.47;;
15633;SDS011;14654;48.898;8.308;2024-03-08T04:34:59;25.00;;;20.77;;
15633;SDS011;14654;48.898;8.308;2024-03-08T04:37:26;24.83;;;20.73;;
15633;SDS011;14654;48.898;8.308;2024-03-08T04:39:51;20.47;;;17.90;;
15633;SDS011;14654;48.898;8.308;2024-03-08T04:42:17;24.60;;;20.67;;
15633;SDS011;14654;48.898;8.308;2024-03-08T04:44:43;24.03;;;20.10;;
15633;SDS011;14654;48.898;8.308;2024-03-08T04:47:08;22.30;;;19.03;;
15633;SDS011;14654;48.898;8.308;2024-03-08T04:49:35;22.43;;;19.47;;
15633;SDS011;14654;48.898;8.308;2024-03-08T04:52:03;23.53;;;19.70;;
15633;SDS011;14654;48.898;8.308;2024-03-08T04:54:29;23.23;;;20.73;;
15633;SDS011;14654;48.898;8.308;2024-03-08T04:56:55;26.57;;;21.23;;
15633;SDS011;14654;48.898;8.308;2024-03-08T04:59:20;23.47;;;19.17;;
15633;SDS011;14654;48.898;8.308;2024-03-08T05:01:46;20.47;;;17.70;;
15633;SDS011;14654;48.898;8.308;2024-03-08T05:04:12;22.10;;;18.27;;
15633;SDS011;14654;48.898;8.308;2024-03-08T05:06:37;21.80;;;18.40;;
15633;SDS011;14654;48.898;8.308;2024-03-08T05:09:03;23.33;;;19.80;;
15633;SDS011;14654;48.898;8.308;2024-03-08T05:11:41;22.20;;;18.77;;
15633;SDS011;14654;48.898;8.308;2024-03-08T05:14:08;21.67;;;18.40;;
15633;SDS011;14654;48.898;8.308;2024-03-08T05:16:34;21.50;;;18.47;;
15633;SDS011;14654;48.898;8.308;2024-03-08T05:18:59;23.57;;;19.73;;
15633;SDS011;14654;48.898;8.308;2024-03-08T05:21:25;21.53;;;18.57;;
15633;SDS011;14654;48.898;8.308;2024-03-08T05:23:50;22.77;;;18.83;;
15633;SDS011;14654;48.898;8.308;2024-03-08T05:26:16;23.70;;;19.07;;
15633;SDS011;14654;48.898;8.308;2024-03-08T05:28:42;21.30;;;18.67;;
15633;SDS011;14654;48.898;8.308;2024-03-08T05:31:07;21.27;;;18.10;;
15633;SDS011;14654;48.898;8.308;2024-03-08T05:33:33;22.03;;;18.33;;
15633;SDS011;14654;48.898;8.308;2024-03-08T05:36:01;23.43;;;18.60;;
15633;SDS011;14654;48.898;8.308;2024-03-08T05:38:27;22.60;;;19.13;;
15633;SDS011;14654;48.898;8.308;2024-03-08T05:40:53;21.80;;;18.83;;
15633;SDS011;14654;48.898;8.308;2024-03-08T05:43:19;23.13;;;19.37;;
15633;SDS011;14654;48.898;8.308;2024-03-08T05:45:45;25.33;;;19.53;;
15633;SDS011;14654;48.898;8.308;2024-03-08T05:48:10;26.10;;;19.90;;
15633;SDS011;14654;48.898;8.308;2024-03-08T05:50:37;24.00;;;19.10;;
15633;SDS011;14654;48.898;8.308;2024-03-08T05:53:03;22.00;;;18.83;;
15633;SDS011;14654;48.898;8.308;2024-03-08T05:55:31;22.97;;;19.53;;
15633;SDS011;14654;48.898;8.308;2024-03-08T05:57:59;22.73;;;18.13;;
15633;SDS011;14654;48.898;8.308;2024-03-08T06:00:26;23.13;;;19.50;;
15633;SDS011;14654;48.898;8.308;2024-03-08T06:02:51;23.50;;;19.67;;
15633;SDS011;14654;48.898;8.308;2024-03-08T06:05:16;24.27;;;19.00;;
15633;SDS011;14654;48.898;8.308;2024-03-08T06:07:42;23.43;;;19.20;;
15633;SDS011;14654;48.898;8.308;2024-03-08T06:10:08;25.83;;;19.70;;
15633;SDS011;14654;48.898;8.308;2024-03-08T06:12:37;23.33;;;19.60;;
15633;SDS011;14654;48.898;8.308;2024-03-08T06:15:09;24.40;;;19.07;;
15633;SDS011;14654;48.898;8.308;2024-03-08T06:17:35;22.23;;;19.30;;
15633;SDS011;14654;48.898;8.308;2024-03-08T06:20:03;24.53;;;19.70;;
15633;SDS011;14654;48.898;8.308;2024-03-08T06:22:35;24.93;;;19.27;;
15633;SDS011;14654;48.898;8.308;2024-03-08T06:25:00;24.87;;;20.57;;
15633;SDS011;14654;48.898;8.308;2024-03-08T06:27:26;28.60;;;19.50;;
15633;SDS011;14654;48.898;8.308;2024-03-08T06:29:51;24.40;;;19.33;;
15633;SDS011;14654;48.898;8.308;2024-03-08T06:32:16;22.70;;;19.47;;
15633;SDS011;14654;48.898;8.308;2024-03-08T06:34:42;22.37;;;19.23;;
15633;SDS011;14654;48.898;8.308;2024-03-08T06:37:07;22.07;;;19.07;;
15633;SDS011;14654;48.898;8.308;2024-03-08T06:39:32;23.57;;;20.07;;
15633;SDS011;14654;48.898;8.308;2024-03-08T06:41:59;21.97;;;18.60;;
15633;SDS011;14654;48.898;8.308;2024-03-08T06:44:25;21.27;;;18.70;;
15633;SDS011;14654;48.898;8.308;2024-03-08T06:46:50;24.33;;;19.93;;
15633;SDS011;14654;48.898;8.308;2024-03-08T06:49:16;24.13;;;19.90;;
15633;SDS011;14654;48.898;8.308;2024-03-08T06:51:41;24.73;;;19.37;;
15633;SDS011;14654;48.898;8.308;2024-03-08T06:54:06;25.63;;;20.57;;
15633;SDS011;14654;48.898;8.308;2024-03-08T06:56:36;21.67;;;18.47;;
15633;SDS011;14654;48.898;8.308;2024-03-08T06:59:02;22.77;;;18.83;;
15633;SDS011;14654;48.898;8.308;2024-03-08T07:01:28;21.20;;;18.63;;
15633;SDS011;14654;48.898;8.308;2024-03-08T07:03:56;22.23;;;19.07;;
15633;SDS011;14654;48.898;8.308;2024-03-08T07:06:22;21.90;;;19.40;;
15633;SDS011;14654;48.898;8.308;2024-03-08T07:08:47;21.83;;;18.80;;
15633;SDS011;14654;48.898;8.308;2024-03-08T07:11:13;20.30;;;18.10;;
15633;SDS011;14654;48.898;8.308;2024-03-08T07:13:43;21.50;;;19.03;;
15633;SDS011;14654;48.898;8.308;2024-03-08T07:16:08;23.23;;;18.83;;
15633;SDS011;14654;48.898;8.308;2024-03-08T07:18:35;21.67;;;18.40;;
15633;SDS011;14654;48.898;8.308;2024-03-08T07:21:04;23.20;;;19.30;;
15633;SDS011;14654;48.898;8.308;2024-03-08T07:23:30;21.73;;;18.97;;
15633;SDS011;14654;48.898;8.308;2024-03-08T07:26:17;21.43;;;18.83;;
15633;SDS011;14654;48.898;8.308;2024-03-08T07:28:43;24.10;;;19.47;;
15633;SDS011;14654;48.898;8.308;2024-03-08T07:31:09;19.77;;;17.67;;
15633;SDS011;14654;48.898;8.308;2024-03-08T07:33:37;22.00;;;19.10;;
15633;SDS011;14654;48.898;8.308;2024-03-08T07:36:03;21.13;;;18.90;;
15633;SDS011;14654;48.898;8.308;2024-03-08T07:38:28;21.70;;;19.40;;
15633;SDS011;14654;48.898;8.308;2024-03-08T07:40:54;21.47;;;19.07;;
15633;SDS011;14654;48.898;8.308;2024-03-08T07:43:21;20.83;;;18.50;;
15633;SDS011;14654;48.898;8.308;2024-03-08T07:45:47;21.30;;;19.10;;
15633;SDS011;14654;48.898;8.308;2024-03-08T07:48:12;21.17;;;18.73;;
15633;SDS011;14654;48.898;8.308;2024-03-08T07:50:38;21.50;;;19.30;;
15633;SDS011;14654;48.898;8.308;2024-03-08T07:53:04;22.43;;;19.13;;
15633;SDS011;14654;48.898;8.308;2024-03-08T07:55:33;21.90;;;19.07;;
15633;SDS011;14654;48.898;8.308;2024-03-08T07:58:00;21.67;;;19.47;;
15633;SDS011;14654;48.898;8.308;2024-03-08T08:00:25;22.67;;;19.60;;
15633;SDS011;14654;48.898;8.308;2024-03-08T08:02:52;20.90;;;18.63;;
15633;SDS011;14654;48.898;8.308;2024-03-08T08:05:17;21.87;;;19.50;;
15633;SDS011;14654;48.898;8.308;2024-03-08T08:07:46;21.13;;;18.53;;
15633;SDS011;14654;48.898;8.308;2024-03-08T08:10:12;23.13;;;18.70;;
15633;SDS011;14654;48.898;8.308;2024-03-08T08:12:47;22.43;;;18.50;;
15633;SDS011;14654;48.898;8.308;2024-03-08T08:15:13;21.67;;;18.63;;
15633;SDS011;14654;48.898;8.308;2024-03-08T08:17:40;22.40;;;19.97;;
15633;SDS011;14654;48.898;8.308;2024-03-08T08:20:06;22.40;;;19.13;;
15633;SDS011;14654;48.898;8.308;2024-03-08T08:22:32;21.40;;;19.00;;
15633;SDS011;14654;48.898;8.308;2024-03-08T08:24:57;23.80;;;19.30;;
15633;SDS011;14654;48.898;8.308;2024-03-08T08:27:22;21.90;;;18.97;;
15633;SDS011;14654;48.898;8.308;2024-03-08T08:29:48;21.17;;;19.00;;
15633;SDS011;14654;48.898;8.308;2024-03-08T08:32:14;19.17;;;17.17;;
15633;SDS011;14654;48.898;8.308;2024-03-08T08:34:40;20.30;;;17.77;;
15633;SDS011;14654;48.898;8.308;2024-03-08T08:37:07;20.63;;;17.30;;
15633;SDS011;14654;48.898;8.308;2024-03-08T08:39:34;18.87;;;16.50;;
15633;SDS011;14654;48.898;8.308;2024-03-08T08:42:00;18.87;;;16.97;;
15633;SDS011;14654;48.898;8.308;2024-03-08T08:44:25;18.63;;;16.63;;
15633;SDS011;14654;48.898;8.308;2024-03-08T08:46:50;19.73;;;17.73;;
15633;SDS011;14654;48.898;8.308;2024-03-08T08:49:16;19.77;;;17.70;;
15633;SDS011;14654;48.898;8.308;2024-03-08T08:51:48;18.57;;;16.57;;
15633;SDS011;14654;48.898;8.308;2024-03-08T08:54:16;19.80;;;17.70;;
15633;SDS011;14654;48.898;8.308;2024-03-08T08:56:42;18.70;;;16.80;;
15633;SDS011;14654;48.898;8.308;2024-03-08T08:59:12;18.83;;;16.93;;
15633;SDS011;14654;48.898;8.308;2024-03-08T09:01:39;19.03;;;16.87;;
15633;SDS011;14654;48.898;8.308;2024-03-08T09:04:05;18.30;;;16.40;;
15633;SDS011;14654;48.898;8.308;2024-03-08T09:06:32;17.40;;;15.60;;
15633;SDS011;14654;48.898;8.308;2024-03-08T09:08:57;18.97;;;16.70;;
15633;SDS011;14654;48.898;8.308;2024-03-08T09:11:22;19.67;;;17.60;;
15633;SDS011;14654;48.898;8.308;2024-03-08T09:13:50;18.20;;;16.30;;
15633;SDS011;14654;48.898;8.308;2024-03-08T09:16:15;19.23;;;17.13;;
15633;SDS011;14654;48.898;8.308;2024-03-08T09:18:41;19.60;;;17.27;;
15633;SDS011;14654;48.898;8.308;2024-03-08T09:21:06;17.53;;;15.73;;
15633;SDS011;14654;48.898;8.308;2024-03-08T09:23:34;17.97;;;16.13;;
15633;SDS011;14654;48.898;8.308;2024-03-08T09:26:00;18.97;;;16.33;;
15633;SDS011;14654;48.898;8.308;2024-03-08T09:28:26;19.40;;;14.70;;
15633;SDS011;14654;48.898;8.308;2024-03-08T09:30:52;18.60;;;16.63;;
15633;SDS011;14654;48.898;8.308;2024-03-08T09:33:17;18.20;;;16.30;;
15633;SDS011;14654;48.898;8.308;2024-03-08T09:35:47;16.97;;;15.03;;
15633;SDS011;14654;48.898;8.308;2024-03-08T09:38:13;18.17;;;15.57;;
15633;SDS011;14654;48.898;8.308;2024-03-08T09:40:42;17.03;;;15.23;;
15633;SDS011;14654;48.898;8.308;2024-03-08T09:43:08;18.77;;;16.80;;
15633;SDS011;14654;48.898;8.308;2024-03-08T09:45:37;18.37;;;16.47;;
15633;SDS011;14654;48.898;8.308;2024-03-08T09:48:06;16.73;;;15.00;;
15633;SDS011;14654;48.898;8.308;2024-03-08T09:50:37;17.17;;;15.37;;
15633;SDS011;14654;48.898;8.308;2024-03-08T09:53:03;20.27;;;15.87;;
15633;SDS011;14654;48.898;8.308;2024-03-08T09:55:29;17.73;;;15.83;;
15633;SDS011;14654;48.898;8.308;2024-03-08T09:57:59;18.93;;;16.93;;
15633;SDS011;14654;48.898;8.308;2024-03-08T10:00:44;19.20;;;16.43;;
15633;SDS011;14654;48.898;8.308;2024-03-08T10:03:10;18.60;;;16.50;;
15633;SDS011;14654;48.898;8.308;2024-03-08T10:05:35;19.37;;;16.43;;
15633;SDS011;14654;48.898;8.308;2024-03-08T10:08:01;17.97;;;16.03;;
15633;SDS011;14654;48.898;8.308;2024-03-08T10:10:27;18.10;;;15.77;;
15633;SDS011;14654;48.898;8.308;2024-03-08T10:12:52;18.20;;;16.30;;
15633;SDS011;14654;48.898;8.308;2024-03-08T10:15:17;17.27;;;15.47;;
15633;SDS011;14654;48.898;8.308;2024-03-08T10:17:43;18.77;;;16.77;;
15633;SDS011;14654;48.898;8.308;2024-03-08T10:20:18;20.07;;;15.70;;
15633;SDS011;14654;48.898;8.308;2024-03-08T10:22:44;19.10;;;16.40;;
15633;SDS011;14654;48.898;8.308;2024-03-08T10:25:13;18.07;;;16.00;;
15633;SDS011;14654;48.898;8.308;2024-03-08T10:27:38;17.67;;;15.77;;
15633;SDS011;14654;48.898;8.308;2024-03-08T10:30:10;16.23;;;14.53;;
15633;SDS011;14654;48.898;8.308;2024-03-08T10:32:39;15.97;;;14.23;;
15633;SDS011;14654;48.898;8.308;2024-03-08T10:35:06;18.37;;;16.47;;
15633;SDS011;14654;48.898;8.308;2024-03-08T10:37:33;16.00;;;14.30;;
15633;SDS011;14654;48.898;8.308;2024-03-08T10:40:09;16.23;;;14.53;;
15633;SDS011;14654;48.898;8.308;2024-03-08T10:42:45;17.57;;;15.57;;
15633;SDS011;14654;48.898;8.308;2024-03-08T10:48:20;17.47;;;15.70;;
15633;SDS011;14654;48.898;8.308;2024-03-08T10:50:49;15.90;;;14.20;;
15633;SDS011;14654;48.898;8.308;2024-03-08T10:53:15;18.67;;;15.60;;
15633;SDS011;14654;48.898;8.308;2024-03-08T10:55:43;16.90;;;15.10;;
15633;SDS011;14654;48.898;8.308;2024-03-08T10:58:09;16.90;;;15.13;;
15633;SDS011;14654;48.898;8.308;2024-03-08T11:00:35;16.37;;;14.50;;
15633;SDS011;14654;48.898;8.308;2024-03-08T11:03:02;17.73;;;15.77;;
15633;SDS011;14654;48.898;8.308;2024-03-08T11:16:12;15.53;;;13.93;;
15633;SDS011;14654;48.898;8.308;2024-03-08T11:18:54;16.20;;;14.57;;
15633;SDS011;14654;48.898;8.308;2024-03-08T11:21:29;15.87;;;14.20;;
15633;SDS011;14654;48.898;8.308;2024-03-08T11:24:06;14.83;;;13.33;;
15633;SDS011;14654;48.898;8.308;2024-03-08T11:26:33;16.10;;;14.40;;
15633;SDS011;14654;48.898;8.308;2024-03-08T11:32:05;14.93;;;13.53;;
15633;SDS011;14654;48.898;8.308;2024-03-08T11:34:32;16.57;;;14.77;;
15633;SDS011;14654;48.898;8.308;2024-03-08T11:36:58;16.23;;;13.80;;
15633;SDS011;14654;48.898;8.308;2024-03-08T11:39:24;16.93;;;13.97;;
15633;SDS011;14654;48.898;8.308;2024-03-08T11:41:50;16.57;;;14.87;;
15633;SDS011;14654;48.898;8.308;2024-03-08T11:44:16;15.87;;;14.27;;
15633;SDS011;14654;48.898;8.308;2024-03-08T11:46:42;15.60;;;14.00;;
15633;SDS011;14654;48.898;8.308;2024-03-08T11:49:12;15.70;;;14.03;;
15633;SDS011;14654;48.898;8.308;2024-03-08T11:51:38;14.47;;;12.97;;
15633;SDS011;14654;48.898;8.308;2024-03-08T11:54:04;18.33;;;13.90;;
15633;SDS011;14654;48.898;8.308;2024-03-08T11:56:31;14.40;;;12.87;;
15633;SDS011;14654;48.898;8.308;2024-03-08T11:58:57;14.87;;;13.27;;
15633;SDS011;14654;48.898;8.308;2024-03-08T12:01:23;14.90;;;13.40;;
15633;SDS011;14654;48.898;8.308;2024-03-08T12:03:55;14.33;;;12.87;;
15633;SDS011;14654;48.898;8.308;2024-03-08T12:06:23;13.80;;;12.50;;
15633;SDS011;14654;48.898;8.308;2024-03-08T12:08:49;13.97;;;12.60;;
15633;SDS011;14654;48.898;8.308;2024-03-08T12:11:15;15.47;;;13.87;;
15633;SDS011;14654;48.898;8.308;2024-03-08T12:13:44;14.43;;;12.93;;
15633;SDS011;14654;48.898;8.308;2024-03-08T12:16:15;15.60;;;13.93;;
15633;SDS011;14654;48.898;8.308;2024-03-08T12:18:43;15.83;;;14.23;;
15633;SDS011;14654;48.898;8.308;2024-03-08T12:21:10;15.17;;;13.57;;
15633;SDS011;14654;48.898;8.308;2024-03-08T12:23:37;15.23;;;13.73;;
15633;SDS011;14654;48.898;8.308;2024-03-08T12:26:10;14.10;;;12.70;;
15633;SDS011;14654;48.898;8.308;2024-03-08T12:28:39;14.47;;;13.07;;
15633;SDS011;14654;48.898;8.308;2024-03-08T12:31:06;17.23;;;14.43;;
15633;SDS011;14654;48.898;8.308;2024-03-08T12:33:36;15.90;;;13.30;;
15633;SDS011;14654;48.898;8.308;2024-03-08T12:36:02;15.63;;;14.03;;
15633;SDS011;14654;48.898;8.308;2024-03-08T12:38:32;16.77;;;13.73;;
15633;SDS011;14654;48.898;8.308;2024-03-08T12:41:00;14.13;;;12.73;;
15633;SDS011;14654;48.898;8.308;2024-03-08T12:43:26;15.03;;;13.53;;
15633;SDS011;14654;48.898;8.308;2024-03-08T12:45:55;13.93;;;12.53;;
15633;SDS011;14654;48.898;8.308;2024-03-08T12:48:20;15.00;;;13.50;;
15633;SDS011;14654;48.898;8.308;2024-03-08T12:50:45;16.33;;;14.63;;
15633;SDS011;14654;48.898;8.308;2024-03-08T12:53:13;16.50;;;14.77;;
15633;SDS011;14654;48.898;8.308;2024-03-08T12:55:38;15.70;;;14.07;;
15633;SDS011;14654;48.898;8.308;2024-03-08T12:58:04;14.20;;;12.80;;
15633;SDS011;14654;48.898;8.308;2024-03-08T13:00:32;15.20;;;13.70;;
15633;SDS011;14654;48.898;8.308;2024-03-08T13:02:58;13.93;;;12.53;;
15633;SDS011;14654;48.898;8.308;2024-03-08T13:05:24;13.77;;;12.50;;
15633;SDS011;14654;48.898;8.308;2024-03-08T13:07:49;14.63;;;13.13;;
15633;SDS011;14654;48.898;8.308;2024-03-08T13:10:15;13.70;;;12.30;;
15633;SDS011;14654;48.898;8.308;2024-03-08T13:12:44;13.90;;;12.53;;
15633;SDS011;14654;48.898;8.308;2024-03-08T13:15:10;13.93;;;12.40;;
15633;SDS011;14654;48.898;8.308;2024-03-08T13:17:48;14.03;;;12.67;;
15633;SDS011;14654;48.898;8.308;2024-03-08T13:20:14;13.73;;;12.37;;
15633;SDS011;14654;48.898;8.308;2024-03-08T13:22:45;14.47;;;12.97;;
15633;SDS011;14654;48.898;8.308;2024-03-08T13:25:11;13.17;;;11.90;;
15633;SDS011;14654;48.898;8.308;2024-03-08T13:27:41;12.93;;;11.63;;
15633;SDS011;14654;48.898;8.308;2024-03-08T13:30:10;14.93;;;13.03;;
15633;SDS011;14654;48.898;8.308;2024-03-08T13:32:39;14.60;;;12.90;;
15633;SDS011;14654;48.898;8.308;2024-03-08T13:35:05;13.53;;;12.13;;
15633;SDS011;14654;48.898;8.308;2024-03-08T13:37:37;13.37;;;12.07;;
15633;SDS011;14654;48.898;8.308;2024-03-08T13:40:05;13.50;;;12.17;;
15633;SDS011;14654;48.898;8.308;2024-03-08T13:42:36;14.10;;;12.63;;
15633;SDS011;14654;48.898;8.308;2024-03-08T13:45:03;13.93;;;12.53;;
15633;SDS011;14654;48.898;8.308;2024-03-08T13:47:29;13.87;;;12.23;;
15633;SDS011;14654;48.898;8.308;2024-03-08T13:49:55;13.13;;;11.73;;
15633;SDS011;14654;48.898;8.308;2024-03-08T13:52:20;13.20;;;11.87;;
15633;SDS011;14654;48.898;8.308;2024-03-08T13:54:46;12.13;;;11.03;;
15633;SDS011;14654;48.898;8.308;2024-03-08T13:57:12;12.13;;;10.93;;
15633;SDS011;14654;48.898;8.308;2024-03-08T13:59:37;12.00;;;10.83;;
15633;SDS011;14654;48.898;8.308;2024-03-08T14:02:03;11.83;;;10.73;;
15633;SDS011;14654;48.898;8.308;2024-03-08T14:04:29;13.50;;;12.10;;
15633;SDS011;14654;48.898;8.308;2024-03-08T14:06:54;13.47;;;11.43;;
15633;SDS011;14654;48.898;8.308;2024-03-08T14:09:24;11.90;;;10.70;;
15633;SDS011;14654;48.898;8.308;2024-03-08T14:11:50;13.43;;;12.03;;
15633;SDS011;14654;48.898;8.308;2024-03-08T14:14:19;12.70;;;11.50;;
15633;SDS011;14654;48.898;8.308;2024-03-08T14:16:45;13.07;;;11.73;;
15633;SDS011;14654;48.898;8.308;2024-03-08T14:19:12;13.20;;;11.90;;
15633;SDS011;14654;48.898;8.308;2024-03-08T14:21:39;14.27;;;12.77;;
15633;SDS011;14654;48.898;8.308;2024-03-08T14:24:04;12.07;;;10.87;;
15633;SDS011;14654;48.898;8.308;2024-03-08T14:26:30;12.43;;;11.27;;
15633;SDS011;14654;48.898;8.308;2024-03-08T14:28:55;13.27;;;11.97;;
15633;SDS011;14654;48.898;8.308;2024-03-08T14:31:22;13.13;;;11.83;;
15633;SDS011;14654;48.898;8.308;2024-03-08T14:33:50;12.90;;;11.70;;
15633;SDS011;14654;48.898;8.308;2024-03-08T14:36:16;14.07;;;12.67;;
15633;SDS011;14654;48.898;8.308;2024-03-08T14:38:51;13.53;;;12.20;;